createdAt,value
2024-02-02T00:01:52.725Z,101698.52
2024-02-02T00:04:20.819Z,101703.51
2024-02-02T00:06:49.420Z,101710.23
2024-02-02T00:09:17.745Z,101711.25
2024-02-02T00:11:45.812Z,101708.98
2024-02-02T00:14:13.992Z,101707.70
2024-02-02T00:16:42.057Z,101707.42
2024-02-02T00:19:10.234Z,101710.14
2024-02-02T00:21:38.319Z,101709.08
2024-02-02T00:24:06.319Z,101711.30
2024-02-02T00:26:34.401Z,101710.23
2024-02-02T00:29:02.626Z,101711.60
2024-02-02T00:31:30.686Z,101712.60
2024-02-02T00:33:58.926Z,101715.20
2024-02-02T00:36:27.187Z,101716.97
2024-02-02T00:38:55.379Z,101721.17
2024-02-02T00:41:23.481Z,101725.89
2024-02-02T00:43:51.785Z,101726.23
2024-02-02T00:46:19.932Z,101726.46
2024-02-02T00:48:48.100Z,101734.45
2024-02-02T00:51:16.335Z,101738.27
2024-02-02T00:53:44.333Z,101736.92
2024-02-02T00:56:12.563Z,101733.32
2024-02-02T00:58:40.722Z,101731.92
2024-02-02T01:01:09.216Z,101738.28
2024-02-02T01:03:38.934Z,101742.30
2024-02-02T01:06:07.790Z,101744.25
2024-02-02T01:08:36.035Z,101741.73
2024-02-02T01:11:04.596Z,101740.10
2024-02-02T01:13:32.697Z,101739.77
2024-02-02T01:16:00.958Z,101740.95
2024-02-02T01:18:29.186Z,101740.23
2024-02-02T01:20:57.386Z,101746.17
2024-02-02T01:23:25.892Z,101751.39
2024-02-02T01:25:54.058Z,101751.79
2024-02-02T01:28:22.129Z,101750.22
2024-02-02T01:30:50.203Z,101749.17
2024-02-02T01:33:18.667Z,101754.53
2024-02-02T01:35:46.872Z,101751.23
2024-02-02T01:38:15.206Z,101753.81
2024-02-02T01:40:43.292Z,101753.77
2024-02-02T01:43:11.358Z,101755.72
2024-02-02T01:45:39.435Z,101754.63
2024-02-02T01:48:10.707Z,101751.70
2024-02-02T01:50:38.984Z,101752.04
2024-02-02T01:53:07.137Z,101756.04
2024-02-02T01:55:35.657Z,101764.02
2024-02-02T01:58:03.886Z,101767.02
2024-02-02T02:00:32.140Z,101765.70
2024-02-02T02:03:00.551Z,101765.13
2024-02-02T02:05:29.782Z,101764.22
2024-02-02T02:07:57.893Z,101756.73
2024-02-02T02:10:26.714Z,101765.05
2024-02-02T02:12:55.133Z,101758.73
2024-02-02T02:15:25.061Z,101761.47
2024-02-02T02:17:53.686Z,101763.67
2024-02-02T02:20:23.914Z,101762.02
2024-02-02T02:22:52.465Z,101765.59
2024-02-02T02:25:21.153Z,101771.09
2024-02-02T02:27:49.593Z,101774.52
2024-02-02T02:30:17.647Z,101777.58
2024-02-02T02:32:45.852Z,101772.90
2024-02-02T02:35:14.040Z,101772.36
2024-02-02T02:37:42.079Z,101779.61
2024-02-02T02:40:10.904Z,101784.44
2024-02-02T02:42:39.161Z,101784.43
2024-02-02T02:45:07.886Z,101784.59
2024-02-02T02:47:36.192Z,101786.44
2024-02-02T02:50:05.530Z,101784.02
2024-02-02T02:52:33.590Z,101785.33
2024-02-02T02:55:01.549Z,101786.27
2024-02-02T02:57:29.653Z,101788.50
2024-02-02T02:59:57.840Z,101786.08
2024-02-02T03:02:25.900Z,101783.83
2024-02-02T03:04:53.974Z,101787.06
2024-02-02T03:07:22.058Z,101788.98
2024-02-02T03:09:50.224Z,101790.64
2024-02-02T03:12:18.388Z,101795.84
2024-02-02T03:14:46.457Z,101792.79
2024-02-02T03:17:14.445Z,101800.77
2024-02-02T03:19:42.622Z,101808.57
2024-02-02T03:22:10.872Z,101810.47
2024-02-02T03:24:39.012Z,101815.48
2024-02-02T03:27:07.745Z,101817.73
2024-02-02T03:29:35.738Z,101821.88
2024-02-02T03:32:04.782Z,101822.73
2024-02-02T03:34:32.928Z,101826.34
2024-02-02T03:37:02.265Z,101830.11
2024-02-02T03:39:30.494Z,101833.02
2024-02-02T03:41:58.849Z,101838.05
2024-02-02T03:44:27.086Z,101841.11
2024-02-02T03:46:55.128Z,101844.23
2024-02-02T03:49:23.194Z,101848.02
2024-02-02T03:51:51.291Z,101852.33
2024-02-02T03:54:19.332Z,101846.55
2024-02-02T03:56:47.444Z,101846.88
2024-02-02T03:59:15.745Z,101852.87
2024-02-02T04:01:43.891Z,101849.53
2024-02-02T04:04:12.185Z,101851.10
2024-02-02T04:06:40.235Z,101853.66
2024-02-02T04:09:09.912Z,101852.04
2024-02-02T04:11:38.496Z,101851.48
2024-02-02T04:14:09.467Z,101846.45
2024-02-02T04:16:37.522Z,101853.84
2024-02-02T04:19:05.707Z,101850.98
2024-02-02T04:21:34.052Z,101849.73
2024-02-02T04:24:02.224Z,101848.41
2024-02-02T04:26:30.281Z,101844.38
2024-02-02T04:28:58.226Z,101845.77
2024-02-02T04:31:26.265Z,101843.84
2024-02-02T04:33:54.484Z,101841.55
2024-02-02T04:36:22.497Z,101841.36
2024-02-02T04:38:50.605Z,101849.73
2024-02-02T04:41:18.569Z,101848.71
2024-02-02T04:43:46.565Z,101845.48
2024-02-02T04:46:14.684Z,101842.40
2024-02-02T04:48:42.914Z,101842.64
2024-02-02T04:51:11.062Z,101844.10
2024-02-02T04:53:39.208Z,101842.92
2024-02-02T04:56:07.291Z,101840.19
2024-02-02T04:58:35.294Z,101847.14
2024-02-02T05:01:03.410Z,101853.36
2024-02-02T05:03:33.607Z,101858.69
2024-02-02T05:06:01.878Z,101869.55
2024-02-02T05:08:30.078Z,101870.22
2024-02-02T05:10:58.041Z,101868.35
2024-02-02T05:13:26.502Z,101867.11
2024-02-02T05:15:54.709Z,101869.95
2024-02-02T05:18:22.973Z,101871.60
2024-02-02T05:20:51.386Z,101879.73
2024-02-02T05:23:19.513Z,101874.38
2024-02-02T05:25:47.552Z,101875.61
2024-02-02T05:28:15.662Z,101879.56
2024-02-02T05:30:44.167Z,101867.98
2024-02-02T05:33:12.468Z,101866.50
2024-02-02T05:35:40.741Z,101872.73
2024-02-02T05:38:08.987Z,101870.70
2024-02-02T05:40:37.221Z,101874.34
2024-02-02T05:43:06.163Z,101874.28
2024-02-02T05:45:34.214Z,101872.70
2024-02-02T05:48:02.503Z,101874.63
2024-02-02T05:50:30.792Z,101871.30
2024-02-02T05:52:58.787Z,101876.61
2024-02-02T05:55:26.909Z,101872.81
2024-02-02T05:57:55.178Z,101877.83
2024-02-02T06:00:23.366Z,101881.60
2024-02-02T06:02:51.475Z,101876.59
2024-02-02T06:05:19.518Z,101881.74
2024-02-02T06:07:47.917Z,101877.36
2024-02-02T06:10:16.252Z,101876.58
2024-02-02T06:12:44.554Z,101878.19
2024-02-02T06:15:12.990Z,101877.91
2024-02-02T06:17:41.201Z,101876.91
2024-02-02T06:20:10.201Z,101884.36
2024-02-02T06:22:38.244Z,101885.26
2024-02-02T06:25:06.614Z,101888.95
2024-02-02T06:27:34.842Z,101895.30
2024-02-02T06:30:05.045Z,101902.42
2024-02-02T06:32:33.525Z,101904.17
2024-02-02T06:35:02.010Z,101898.35
2024-02-02T06:37:30.557Z,101898.62
2024-02-02T06:39:59.204Z,101898.58
2024-02-02T06:42:27.866Z,101901.30
2024-02-02T06:44:58.902Z,101898.28
2024-02-02T06:47:27.401Z,101910.67
2024-02-02T06:49:55.830Z,101912.84
2024-02-02T06:52:24.097Z,101915.48
2024-02-02T06:54:52.386Z,101919.75
2024-02-02T06:57:21.025Z,101917.77
2024-02-02T06:59:50.675Z,101912.85
2024-02-02T07:02:21.516Z,101907.41
2024-02-02T07:04:49.940Z,101901.64
2024-02-02T07:07:18.842Z,101896.77
2024-02-02T07:09:57.697Z,101898.16
2024-02-02T07:12:46.941Z,101907.38
2024-02-02T07:15:19.718Z,101910.30
2024-02-02T07:17:48.547Z,101914.53
2024-02-02T07:20:33.598Z,101908.30
2024-02-02T07:23:05.241Z,101910.16
2024-02-02T07:25:38.545Z,101909.97
2024-02-02T07:28:35.852Z,101910.27
2024-02-02T07:31:05.421Z,101911.18
2024-02-02T07:33:45.072Z,101908.25
2024-02-02T07:36:33.123Z,101907.72
2024-02-02T07:39:02.340Z,101908.71
2024-02-02T07:41:31.265Z,101907.74
2024-02-02T07:44:01.420Z,101910.92
2024-02-02T07:46:30.187Z,101916.40
2024-02-02T07:48:58.673Z,101917.95
2024-02-02T07:51:28.281Z,101915.11
2024-02-02T07:53:56.655Z,101916.67
2024-02-02T07:56:25.989Z,101915.60
2024-02-02T07:58:54.677Z,101916.61
2024-02-02T08:01:22.762Z,101912.10
2024-02-02T08:03:51.047Z,101913.48
2024-02-02T08:06:19.423Z,101910.67
2024-02-02T08:08:47.619Z,101914.63
2024-02-02T08:11:15.714Z,101915.90
2024-02-02T08:13:44.394Z,101918.54
2024-02-02T08:16:12.547Z,101919.48
2024-02-02T08:18:40.969Z,101917.16
2024-02-02T08:21:11.453Z,101916.90
2024-02-02T08:23:39.758Z,101914.00
2024-02-02T08:26:07.888Z,101911.63
2024-02-02T08:28:45.359Z,101903.84
2024-02-02T08:31:19.572Z,101907.27
2024-02-02T08:33:47.753Z,101906.56
2024-02-02T08:36:16.343Z,101903.98
2024-02-02T08:38:44.479Z,101905.80
2024-02-02T08:41:13.058Z,101905.23
2024-02-02T08:43:43.236Z,101896.80
2024-02-02T08:46:14.528Z,101900.65
2024-02-02T08:48:53.530Z,101903.79
2024-02-02T08:51:24.975Z,101900.64
2024-02-02T08:54:17.622Z,101895.58
2024-02-02T08:57:25.426Z,101899.62
2024-02-02T08:59:54.937Z,101901.41
2024-02-02T09:02:43.103Z,101900.51
2024-02-02T09:05:19.734Z,101896.59
2024-02-02T09:07:53.458Z,101891.23
2024-02-02T09:10:47.300Z,101886.98
2024-02-02T09:13:24.554Z,101894.49
2024-02-02T09:15:53.227Z,101898.81
2024-02-02T09:18:40.966Z,101892.04
2024-02-02T09:21:10.309Z,101893.50
2024-02-02T09:23:40.629Z,101896.75
2024-02-02T09:26:12.620Z,101898.95
2024-02-02T09:28:43.251Z,101895.23
2024-02-02T09:31:39.012Z,101889.77
2024-02-02T09:34:10.660Z,101885.11
2024-02-02T09:36:41.295Z,101884.86
2024-02-02T09:39:42.648Z,101878.88
2024-02-02T09:42:32.178Z,101883.88
2024-02-02T09:45:17.597Z,101886.58
2024-02-02T09:47:53.781Z,101888.80
2024-02-02T09:50:44.884Z,101883.81
2024-02-02T09:53:26.080Z,101887.11
2024-02-02T09:56:02.595Z,101887.23
2024-02-02T09:58:52.588Z,101887.75
2024-02-02T10:01:38.871Z,101881.51
2024-02-02T10:04:40.189Z,101880.64
2024-02-02T10:07:33.030Z,101877.90
2024-02-02T10:10:04.011Z,101878.98
2024-02-02T10:12:51.133Z,101886.30
2024-02-02T10:16:05.403Z,101882.23
2024-02-02T10:19:03.530Z,101880.98
2024-02-02T10:21:49.248Z,101885.95
2024-02-02T10:24:46.504Z,101893.27
2024-02-02T10:27:37.510Z,101890.60
2024-02-02T10:30:14.720Z,101895.12
2024-02-02T10:33:10.178Z,101893.95
2024-02-02T10:36:05.724Z,101885.61
2024-02-02T10:38:36.846Z,101874.91
2024-02-02T10:41:30.996Z,101877.30
2024-02-02T10:44:13.879Z,101875.20
2024-02-02T10:47:05.468Z,101869.98
2024-02-02T10:50:03.693Z,101864.24
2024-02-02T10:53:00.366Z,101858.61
2024-02-02T10:55:39.430Z,101858.15
2024-02-02T10:58:35.079Z,101849.59
2024-02-02T11:01:15.360Z,101838.16
2024-02-02T11:04:16.279Z,101835.98
2024-02-02T11:06:51.721Z,101831.88
2024-02-02T11:09:41.060Z,101823.30
2024-02-02T11:12:17.889Z,101819.49
2024-02-02T11:14:56.105Z,101822.84
2024-02-02T11:17:35.043Z,101820.63
2024-02-02T11:20:18.370Z,101816.11
2024-02-02T11:22:49.388Z,101817.14
2024-02-02T11:25:31.019Z,101814.40
2024-02-02T11:28:03.513Z,101810.55
2024-02-02T11:30:48.151Z,101807.61
2024-02-02T11:33:57.756Z,101806.39
2024-02-02T11:36:55.694Z,101805.12
2024-02-02T11:39:32.502Z,101796.27
2024-02-02T11:42:07.990Z,101788.65
2024-02-02T11:44:37.850Z,101784.18
2024-02-02T11:47:06.682Z,101784.91
2024-02-02T11:49:39.800Z,101779.94
2024-02-02T11:52:23.169Z,101777.95
2024-02-02T11:55:09.049Z,101773.48
2024-02-02T11:57:45.273Z,101768.61
2024-02-02T12:00:24.890Z,101764.54
2024-02-02T12:03:17.524Z,101759.61
2024-02-02T12:06:22.352Z,101755.42
2024-02-02T12:08:59.668Z,101755.48
2024-02-02T12:11:43.719Z,101752.95
2024-02-02T12:14:25.370Z,101750.36
2024-02-02T12:16:53.676Z,101748.29
2024-02-02T12:19:22.330Z,101741.70
2024-02-02T12:21:50.718Z,101741.86
2024-02-02T12:24:19.211Z,101742.01
2024-02-02T12:26:49.583Z,101744.33
2024-02-02T12:29:18.115Z,101738.50
2024-02-02T12:31:46.387Z,101728.80
2024-02-02T12:34:14.778Z,101731.80
2024-02-02T12:36:43.010Z,101731.48
2024-02-02T12:39:11.397Z,101725.60
2024-02-02T12:41:39.466Z,101723.90
2024-02-02T12:44:08.627Z,101721.48
2024-02-02T12:46:47.075Z,101720.32
2024-02-02T12:49:15.511Z,101721.02
2024-02-02T12:51:45.083Z,101718.63
2024-02-02T12:54:13.392Z,101713.23
2024-02-02T12:56:41.537Z,101703.31
2024-02-02T12:59:18.087Z,101696.89
2024-02-02T13:01:47.090Z,101690.44
2024-02-02T13:04:16.346Z,101688.12
2024-02-02T13:06:46.522Z,101679.55
2024-02-02T13:09:20.957Z,101669.93
2024-02-02T13:11:49.577Z,101676.42
2024-02-02T13:14:35.568Z,101672.05
2024-02-02T13:17:10.539Z,101669.04
2024-02-02T13:19:49.395Z,101670.68
2024-02-02T13:22:20.769Z,101674.54
2024-02-02T13:24:50.384Z,101669.43
2024-02-02T13:27:20.356Z,101663.52
2024-02-02T13:29:57.993Z,101653.93
2024-02-02T13:32:28.688Z,101657.15
2024-02-02T13:35:00.743Z,101647.22
2024-02-02T13:37:37.938Z,101644.89
2024-02-02T13:40:11.306Z,101639.59
2024-02-02T13:42:43.638Z,101632.21
2024-02-02T13:45:16.850Z,101629.67
2024-02-02T13:47:54.473Z,101628.06
2024-02-02T13:50:31.654Z,101621.77
2024-02-02T13:53:00.102Z,101617.90
2024-02-02T13:55:31.190Z,101613.77
2024-02-02T13:57:59.240Z,101607.15
2024-02-02T14:00:33.885Z,101601.89
2024-02-02T14:03:09.586Z,101585.89
2024-02-02T14:05:40.996Z,101576.00
2024-02-02T14:08:09.361Z,101574.63
2024-02-02T14:10:48.234Z,101572.38
2024-02-02T14:13:23.177Z,101566.42
2024-02-02T14:15:53.910Z,101562.91
2024-02-02T14:18:22.476Z,101554.77
2024-02-02T14:20:50.587Z,101551.67
2024-02-02T14:23:18.912Z,101544.88
2024-02-02T14:25:46.990Z,101546.39
2024-02-02T14:28:15.592Z,101538.79
2024-02-02T14:30:45.058Z,101535.30
2024-02-02T14:33:22.112Z,101529.72
2024-02-02T14:35:56.519Z,101526.14
2024-02-02T14:38:24.642Z,101515.86
2024-02-02T14:40:54.561Z,101507.98
2024-02-02T14:43:22.840Z,101502.98
2024-02-02T14:45:51.225Z,101494.09
2024-02-02T14:48:20.774Z,101485.73
2024-02-02T14:50:49.203Z,101482.60
2024-02-02T14:53:17.190Z,101476.52
2024-02-02T14:55:45.772Z,101468.30
2024-02-02T14:58:14.811Z,101463.40
2024-02-02T15:00:46.421Z,101457.95
2024-02-02T15:03:14.942Z,101453.27
2024-02-02T15:05:44.033Z,101452.98
2024-02-02T15:08:13.411Z,101450.93
2024-02-02T15:10:42.348Z,101446.45
2024-02-02T15:13:11.832Z,101441.00
2024-02-02T15:15:40.078Z,101442.88
2024-02-02T15:18:08.664Z,101444.43
2024-02-02T15:20:37.004Z,101446.50
2024-02-02T15:23:05.478Z,101450.67
2024-02-02T15:25:33.641Z,101445.13
2024-02-02T15:28:02.011Z,101434.80
2024-02-02T15:30:30.131Z,101425.30
2024-02-02T15:32:58.420Z,101425.89
2024-02-02T15:35:26.607Z,101418.60
2024-02-02T15:37:55.071Z,101413.53
2024-02-02T15:40:23.076Z,101402.69
2024-02-02T15:42:52.094Z,101402.27
2024-02-02T15:45:20.425Z,101405.63
2024-02-02T15:47:51.792Z,101403.70
2024-02-02T15:50:20.406Z,101397.58
2024-02-02T15:52:49.072Z,101388.73
2024-02-02T15:55:17.203Z,101380.67
2024-02-02T15:57:52.089Z,101387.92
2024-02-02T16:00:21.118Z,101384.77
2024-02-02T16:02:49.634Z,101377.61
2024-02-02T16:05:22.672Z,101368.33
2024-02-02T16:07:50.873Z,101354.30
2024-02-02T16:10:19.248Z,101347.89
2024-02-02T16:12:47.505Z,101352.36
2024-02-02T16:15:15.790Z,101351.69
2024-02-02T16:17:43.989Z,101342.30
2024-02-02T16:20:13.009Z,101328.25
2024-02-02T16:22:45.101Z,101319.56
2024-02-02T16:25:16.382Z,101314.02
2024-02-02T16:27:44.564Z,101306.88
2024-02-02T16:30:13.855Z,101307.31
2024-02-02T16:32:42.041Z,101303.47
2024-02-02T16:35:10.356Z,101308.88
2024-02-02T16:37:40.052Z,101309.89
2024-02-02T16:40:11.714Z,101311.53
2024-02-02T16:42:44.249Z,101308.95
2024-02-02T16:45:13.455Z,101299.77
2024-02-02T16:47:41.561Z,101299.77
2024-02-02T16:50:10.288Z,101300.66
2024-02-02T16:52:38.412Z,101294.99
2024-02-02T16:55:06.904Z,101274.59
2024-02-02T16:57:35.678Z,101270.10
2024-02-02T17:00:05.904Z,101262.54
2024-02-02T17:02:36.268Z,101261.30
2024-02-02T17:05:08.105Z,101257.29
2024-02-02T17:07:36.507Z,101242.90
2024-02-02T17:10:05.721Z,101232.16
2024-02-02T17:12:33.709Z,101220.13
2024-02-02T17:15:01.755Z,101210.08
2024-02-02T17:17:30.037Z,101204.48
2024-02-02T17:19:59.891Z,101201.81
2024-02-02T17:22:28.178Z,101206.31
2024-02-02T17:24:56.368Z,101203.41
2024-02-02T17:27:25.041Z,101201.32
2024-02-02T17:29:53.287Z,101190.20
2024-02-02T17:32:21.464Z,101183.11
2024-02-02T17:34:50.322Z,101167.38
2024-02-02T17:37:18.456Z,101162.19
2024-02-02T17:39:46.807Z,101163.90
2024-02-02T17:42:15.259Z,101160.08
2024-02-02T17:44:43.449Z,101152.84
2024-02-02T17:47:11.667Z,101148.91
2024-02-02T17:49:45.670Z,101139.67
2024-02-02T17:52:17.600Z,101140.94
2024-02-02T17:54:46.171Z,101133.89
2024-02-02T17:57:14.404Z,101127.89
2024-02-02T17:59:42.615Z,101121.69
2024-02-02T18:02:11.418Z,101120.83
2024-02-02T18:04:39.767Z,101113.24
2024-02-02T18:07:09.788Z,101113.62
2024-02-02T18:09:43.009Z,101105.71
2024-02-02T18:12:14.954Z,101090.27
2024-02-02T18:14:43.108Z,101075.98
2024-02-02T18:17:15.571Z,101070.76
2024-02-02T18:19:44.500Z,101073.02
2024-02-02T18:22:12.668Z,101070.45
2024-02-02T18:24:40.923Z,101067.02
2024-02-02T18:27:09.177Z,101059.59
2024-02-02T18:29:37.743Z,101050.09
2024-02-02T18:32:05.933Z,101043.67
2024-02-02T18:34:35.449Z,101030.23
2024-02-02T18:37:03.656Z,101017.62
2024-02-02T18:39:31.757Z,101019.69
2024-02-02T18:42:05.444Z,101007.20
2024-02-02T18:44:34.302Z,101003.91
2024-02-02T18:47:03.150Z,100992.36
2024-02-02T18:49:31.714Z,100993.48
2024-02-02T18:51:59.957Z,100990.73
2024-02-02T18:54:28.093Z,100985.00
2024-02-02T18:56:56.410Z,100972.55
2024-02-02T18:59:24.334Z,100963.59
2024-02-02T19:01:52.697Z,100966.20
2024-02-02T19:04:20.819Z,100968.31
2024-02-02T19:06:48.943Z,100967.86
2024-02-02T19:09:17.866Z,100961.82
2024-02-02T19:11:47.187Z,100963.91
2024-02-02T19:14:15.470Z,100954.58
2024-02-02T19:16:43.634Z,100942.81
2024-02-02T19:19:11.918Z,100931.67
2024-02-02T19:21:41.259Z,100924.73
2024-02-02T19:24:09.541Z,100915.02
2024-02-02T19:26:37.685Z,100905.35
2024-02-02T19:29:06.033Z,100898.13
2024-02-02T19:31:36.649Z,100894.34
2024-02-02T19:34:04.908Z,100886.72
2024-02-02T19:36:33.138Z,100887.05
2024-02-02T19:39:01.809Z,100885.82
2024-02-02T19:41:31.992Z,100872.32
2024-02-02T19:44:00.442Z,100872.64
2024-02-02T19:46:30.571Z,100874.50
2024-02-02T19:49:00.663Z,100869.46
2024-02-02T19:51:29.807Z,100858.38
2024-02-02T19:53:58.033Z,100853.55
2024-02-02T19:56:26.144Z,100845.77
2024-02-02T19:58:54.203Z,100842.00
2024-02-02T20:01:23.130Z,100829.21
2024-02-02T20:03:51.906Z,100823.00
2024-02-02T20:06:21.131Z,100817.13
2024-02-02T20:08:50.317Z,100809.89
2024-02-02T20:11:20.464Z,100799.02
2024-02-02T20:13:49.224Z,100797.17
2024-02-02T20:16:19.361Z,100788.54
2024-02-02T20:18:48.688Z,100785.61
2024-02-02T20:21:19.066Z,100782.36
2024-02-02T20:23:49.685Z,100774.76
2024-02-02T20:26:21.371Z,100771.13
2024-02-02T20:28:51.172Z,100757.67
2024-02-02T20:31:19.816Z,100746.32
2024-02-02T20:33:52.490Z,100744.45
2024-02-02T20:36:23.885Z,100736.11
2024-02-02T20:38:53.088Z,100724.35
2024-02-02T20:41:26.653Z,100716.41
2024-02-02T20:43:55.594Z,100713.98
2024-02-02T20:46:23.962Z,100721.59
2024-02-02T20:48:52.325Z,100723.20
2024-02-02T20:51:20.743Z,100727.05
2024-02-02T20:53:48.879Z,100719.11
2024-02-02T20:56:16.941Z,100712.54
2024-02-02T20:58:45.058Z,100704.09
2024-02-02T21:01:13.240Z,100692.32
2024-02-02T21:03:41.527Z,100684.36
2024-02-02T21:06:09.772Z,100686.30
2024-02-02T21:08:38.946Z,100679.39
2024-02-02T21:11:07.495Z,100680.45
2024-02-02T21:13:35.684Z,100674.92
2024-02-02T21:16:05.188Z,100669.06
2024-02-02T21:18:33.916Z,100669.96
2024-02-02T21:21:02.285Z,100660.80
2024-02-02T21:23:30.953Z,100645.06
2024-02-02T21:25:59.047Z,100640.58
2024-02-02T21:28:27.082Z,100643.70
2024-02-02T21:30:59.197Z,100635.91
2024-02-02T21:33:28.447Z,100625.52
2024-02-02T21:35:58.344Z,100614.79
2024-02-02T21:38:27.864Z,100609.08
2024-02-02T21:40:56.042Z,100596.10
2024-02-02T21:43:24.065Z,100586.94
2024-02-02T21:45:52.267Z,100561.30
2024-02-02T21:48:20.558Z,100550.23
2024-02-02T21:50:49.088Z,100548.50
2024-02-02T21:53:17.820Z,100542.27
2024-02-02T21:55:48.866Z,100544.87
2024-02-02T21:58:17.090Z,100546.95
2024-02-02T22:00:45.224Z,100544.70
2024-02-02T22:03:13.372Z,100553.20
2024-02-02T22:05:41.731Z,100546.96
2024-02-02T22:08:11.872Z,100541.77
2024-02-02T22:10:39.916Z,100539.02
2024-02-02T22:13:08.122Z,100530.87
2024-02-02T22:15:36.567Z,100525.16
2024-02-02T22:18:05.559Z,100519.45
2024-02-02T22:20:33.660Z,100522.40
2024-02-02T22:23:01.730Z,100522.94
2024-02-02T22:25:29.815Z,100520.17
2024-02-02T22:30:28.513Z,100538.23
2024-02-02T22:32:58.270Z,100529.21
2024-02-02T22:35:26.693Z,100535.98
2024-02-02T22:37:54.834Z,100540.16
2024-02-02T22:40:23.040Z,100536.88
2024-02-02T22:42:51.147Z,100534.11
2024-02-02T22:45:19.192Z,100532.40
2024-02-02T22:47:47.334Z,100534.13
2024-02-02T22:50:15.660Z,100534.84
2024-02-02T22:52:44.834Z,100525.98
2024-02-02T22:55:12.926Z,100518.18
2024-02-02T22:57:41.659Z,100514.89
2024-02-02T23:00:19.566Z,100509.52
2024-02-02T23:02:48.005Z,100510.05
2024-02-02T23:05:16.348Z,100506.40
2024-02-02T23:07:44.514Z,100495.29
2024-02-02T23:10:12.905Z,100489.22
2024-02-02T23:12:40.929Z,100484.71
2024-02-02T23:15:09.383Z,100484.36
2024-02-02T23:17:38.052Z,100487.66
2024-02-02T23:20:07.816Z,100481.42
2024-02-02T23:22:36.243Z,100469.27
2024-02-02T23:25:04.598Z,100462.84
2024-02-02T23:27:34.016Z,100456.42
2024-02-02T23:30:05.321Z,100448.60
2024-02-02T23:32:33.368Z,100442.00
2024-02-02T23:35:01.556Z,100436.10
2024-02-02T23:37:30.363Z,100428.45
2024-02-02T23:39:58.448Z,100421.67
2024-02-02T23:42:26.837Z,100423.23
2024-02-02T23:44:54.994Z,100420.96
2024-02-02T23:47:23.283Z,100417.30
2024-02-02T23:49:51.359Z,100419.02
2024-02-02T23:52:19.716Z,100419.02
2024-02-02T23:54:48.068Z,100417.95
2024-02-02T23:57:22.070Z,100416.38
2024-02-02T23:59:50.283Z,100420.02
